Paula Anna — 5BRM4 — position and weather

sailwx.info

Track history (hours):
 
Tides and Currents Weather Stations Pressure Air Temp Water Temp Dewpoint Dewpoint Depression Visibility Wind Speed Wind Dir Waves Ship Positions

Paula Anna

Last reported at 2018-Jul-18 22:00 UTC. Time now 2018-Jul-18 22:21 UTC.
Position N 38°24' W 009°21'.

Length 107 m; draft 5.5 m.

Type: Cargo ship. MMSI: 212211000.

Date/timePositionNaut miles runAvg speedWind from/ knotsBaromVisibWave heightAir tempDewpointWater temp
2018-Jul-18 22:00N 38°24' W 009°21'5 9.8
2018-Jul-18 21:30N 38°22' W 009°15'5 9.6
2018-Jul-18 21:00N 38°22' W 009°09'510.6
2018-Jul-18 20:30N 38°24' W 009°03'510.4
2018-Jul-18 20:00N 38°27' W 008°58'5 9.7
2018-Jul-18 19:30N 38°31' W 008°53'2 0.3
2018-Jul-18 13:15N 38°30' W 008°51'0 0.0
2018-Jul-17 21:45N 38°30' W 008°51'0 0.0
2018-Jul-17 21:21N 38°30' W 008°51'0 0.0
2018-Jul-17 20:51N 38°30' W 008°51'0 0.0
2018-Jul-17 20:27N 38°30' W 008°51'0 0.0
2018-Jul-17 20:00N 38°30' W 008°51'0 0.0
2018-Jul-17 19:30N 38°30' W 008°51'1 1.3
2018-Jul-17 19:00N 38°31' W 008°52'5 9.5
2018-Jul-17 18:31N 38°28' W 008°57'510.1
2018-Jul-17 18:00N 38°24' W 009°01'3 5.3
2018-Jul-17 17:30N 38°23' W 009°04'1 1.6
2018-Jul-17 17:00N 38°22' W 009°04'2 3.6
2018-Jul-17 16:30N 38°22' W 009°01'2 3.9
2018-Jul-17 16:00N 38°22' W 008°59'1 2.1
2018-Jul-17 15:30N 38°22' W 008°57'3 5.3
2018-Jul-17 15:00N 38°21' W 009°01'3 5.4
2018-Jul-17 14:30N 38°21' W 009°04'3 5.5
2018-Jul-17 14:00N 38°21' W 009°08'3 5.5
2018-Jul-17 13:31N 38°21' W 009°11'4 7.7
2018-Jul-17 13:00N 38°21' W 009°16'4 8.4
2018-Jul-17 12:30N 38°23' W 009°21'4 8.0
2018-Jul-17 12:00N 38°24' W 009°26'4 8.1
2018-Jul-17 11:30N 38°25' W 009°31'4 8.7
2018-Jul-17 11:00N 38°26' W 009°36'4 8.5
2018-Jul-17 10:30N 38°27' W 009°42'4 8.5
2018-Jul-17 10:00N 38°29' W 009°47'5 9.0
2018-Jul-17 09:30N 38°30' W 009°52'4 7.4
2018-Jul-17 09:00N 38°31' W 009°57'4 7.2
2018-Jul-17 08:30N 38°33' W 010°01'4 7.3
2018-Jul-17 08:01N 38°36' W 010°03'4 7.9
2018-Jul-17 07:30N 38°39' W 010°05'4 8.1
2018-Jul-17 07:00N 38°43' W 010°05'4 7.8
2018-Jul-17 06:30N 38°47' W 010°05'4 7.2
2018-Jul-17 06:00N 38°51' W 010°05'4 7.1
2018-Jul-17 05:30N 38°55' W 010°05'4 7.3
2018-Jul-17 05:00N 38°58' W 010°05'3 6.7
2018-Jul-17 04:30N 39°02' W 010°05'3 6.4
2018-Jul-17 04:01N 39°05' W 010°05'3 6.6
2018-Jul-17 03:31N 39°08' W 010°06'3 6.7
2018-Jul-17 03:00N 39°11' W 010°05'3 7.1
2018-Jul-17 02:31N 39°15' W 010°05'4 7.2
2018-Jul-17 01:59N 39°19' W 010°05'3 7.1
2018-Jul-17 01:30N 39°22' W 010°05'5 7.2
2018-Jul-17 00:48N 39°27' W 010°05'343 6.8
2018-Jul-14 22:39N 44°24' W 006°14'1 8.2
2018-Jul-14 22:31N 44°25' W 006°13'4 8.4
2018-Jul-14 22:00N 44°26' W 006°07'4 8.2
2018-Jul-14 21:30N 44°27' W 006°02'4 8.2
2018-Jul-14 21:00N 44°29' W 005°56'5 8.4
2018-Jul-14 20:26N 44°30' W 005°50'6 8.3
2018-Jul-14 19:44N 44°32' W 005°42'3 8.2
2018-Jul-14 19:21N 44°33' W 005°38'3 8.1
2018-Jul-14 18:58N 44°34' W 005°34'13 8.5
2018-Jul-14 17:28N 44°38' W 005°17'4 8.4
2018-Jul-14 17:01N 44°39' W 005°12'6 8.4
2018-Jul-14 16:21N 44°42' W 005°05'3 8.3
2018-Jul-14 16:00N 44°43' W 005°01'5 8.3
2018-Jul-14 15:24N 44°44' W 004°54'3 8.4
2018-Jul-14 15:00N 44°45' W 004°50'7 8.7
2018-Jul-14 14:12N 44°48' W 004°41'6 8.8
2018-Jul-14 13:30N 44°50' W 004°32'4 8.9
2018-Jul-14 13:00N 44°51' W 004°27'5 8.9
2018-Jul-14 12:29N 44°53' W 004°20'4 9.0
2018-Jul-14 12:01N 44°54' W 004°15'4 8.8
2018-Jul-14 11:30N 44°55' W 004°09'5 9.0
2018-Jul-14 11:00N 44°57' W 004°03'5 9.1
2018-Jul-14 10:30N 44°59' W 003°57'5 9.3
2018-Jul-14 10:00N 45°00' W 003°51'5 9.6
2018-Jul-14 09:30N 45°02' W 003°44'5 9.7
2018-Jul-14 09:01N 45°03' W 003°38'5 9.2
2018-Jul-14 08:28N 45°05' W 003°31'5 9.0
2018-Jul-14 07:56N 45°06' W 003°25'4 9.2
2018-Jul-14 07:30N 45°07' W 003°19'5 9.2
2018-Jul-14 07:01N 45°09' W 003°13'5 9.1
2018-Jul-14 06:30N 45°11' W 003°07'5 9.4
2018-Jul-14 06:00N 45°12' W 003°01'510.3
2018-Jul-14 05:30N 45°14' W 002°54'610.7
2018-Jul-14 04:58N 45°16' W 002°46'510.5
2018-Jul-14 04:31N 45°17' W 002°40'510.2
2018-Jul-14 04:01N 45°19' W 002°33'510.0
2018-Jul-14 03:31N 45°21' W 002°26'5 9.8
2018-Jul-14 03:01N 45°22' W 002°20'510.0
2018-Jul-14 02:31N 45°24' W 002°13'5 9.9
2018-Jul-14 02:00N 45°26' W 002°06'5 9.9
2018-Jul-14 01:31N 45°27' W 001°60'5 9.7
2018-Jul-14 01:01N 45°29' W 001°53'5 9.8
2018-Jul-14 00:31N 45°31' W 001°46'510.4
2018-Jul-14 00:00N 45°32' W 001°39'510.7
2018-Jul-13 23:30N 45°34' W 001°32'510.7
2018-Jul-13 23:00N 45°36' W 001°25'611.7
2018-Jul-13 22:30N 45°38' W 001°17'612.9
2018-Jul-13 22:00N 45°39' W 001°08'713.3
2018-Jul-13 21:30N 45°34' W 001°02'714.7
2018-Jul-13 21:00N 45°28' W 000°55'714.5
2018-Jul-13 20:30N 45°22' W 000°49'  
2018-Jul-10 23:14N 44°54' W 000°32'0 0.0
2018-Jul-10 22:44N 44°54' W 000°32'14 0.7
2018-Jul-10 02:12N 45°06' W 000°41'212.0
2018-Jul-10 02:00N 45°08' W 000°42'611.6
2018-Jul-10 01:30N 45°14' W 000°44'612.0
2018-Jul-10 01:00N 45°19' W 000°47'611.8
2018-Jul-10 00:30N 45°24' W 000°51'612.3
2018-Jul-10 00:00N 45°29' W 000°57'612.2
2018-Jul-09 23:30N 45°34' W 001°02'611.2
2018-Jul-09 23:00N 45°38' W 001°07'610.8
2018-Jul-09 22:28N 45°39' W 001°16'8 6.2
2018-Jul-09 21:10N 45°36' W 001°27'1 4.9
2018-Jul-09 20:58N 45°37' W 001°27'2 5.1
2018-Jul-09 20:30N 45°39' W 001°30'17 4.5
2018-Jul-09 16:38N 45°51' W 001°47'1 4.7
2018-Jul-09 16:26N 45°52' W 001°48'2 4.5
2018-Jul-09 16:00N 45°53' W 001°49'3 4.6
2018-Jul-09 15:25N 45°55' W 001°52'26 9.6
2018-Jul-09 12:40N 46°15' W 002°17'2 9.9
2018-Jul-09 12:26N 46°16' W 002°20'39 9.4
2018-Jul-09 08:14N 46°43' W 003°02'2 9.5
2018-Jul-09 07:59N 46°44' W 003°05'10 9.5
2018-Jul-09 06:56N 46°51' W 003°15'4 9.8
2018-Jul-09 06:30N 46°54' W 003°20'510.0
2018-Jul-09 05:58N 46°58' W 003°26'610.0
2018-Jul-09 05:24N 47°02' W 003°32'4 9.8
2018-Jul-09 05:00N 47°04' W 003°36'5 9.8
2018-Jul-09 04:30N 47°08' W 003°41'5 9.8
2018-Jul-09 04:00N 47°11' W 003°46'5 9.8
2018-Jul-09 03:30N 47°14' W 003°52'5 9.9
2018-Jul-09 03:00N 47°18' W 003°57'510.0
2018-Jul-09 02:29N 47°21' W 004°03'510.3
2018-Jul-09 01:58N 47°25' W 004°09'510.1
2018-Jul-09 01:30N 47°28' W 004°14'510.1
2018-Jul-09 01:00N 47°31' W 004°19'510.1
2018-Jul-09 00:30N 47°35' W 004°25'510.2
2018-Jul-09 00:00N 47°38' W 004°30'510.3
2018-Jul-08 23:30N 47°42' W 004°36'510.4
2018-Jul-08 23:00N 47°45' W 004°42'510.2
2018-Jul-08 22:30N 47°49' W 004°47'510.0
2018-Jul-08 22:00N 47°52' W 004°53'  
Track history (hours):
 
Tides and Currents Weather Stations Pressure Air Temp Water Temp Dewpoint Dewpoint Depression Visibility Wind Speed Wind Dir Waves Ship Positions

Paula Anna

Last reported at 2018-Jul-18 22:00 UTC. Time now 2018-Jul-18 22:21 UTC.
Position N 38°24' W 009°21'.

Length 107 m; draft 5.5 m.

Type: Cargo ship. MMSI: 212211000.

Date/timePositionNaut miles runAvg speedWind from/ knotsBaromVisibWave heightAir tempDewpointWater temp
2018-Jul-18 22:00N 38°24' W 009°21'5 9.8
2018-Jul-18 21:30N 38°22' W 009°15'5 9.6
2018-Jul-18 21:00N 38°22' W 009°09'510.6
2018-Jul-18 20:30N 38°24' W 009°03'510.4
2018-Jul-18 20:00N 38°27' W 008°58'5 9.7
2018-Jul-18 19:30N 38°31' W 008°53'2 0.3
2018-Jul-18 13:15N 38°30' W 008°51'0 0.0
2018-Jul-17 21:45N 38°30' W 008°51'0 0.0
2018-Jul-17 21:21N 38°30' W 008°51'0 0.0
2018-Jul-17 20:51N 38°30' W 008°51'0 0.0
2018-Jul-17 20:27N 38°30' W 008°51'0 0.0
2018-Jul-17 20:00N 38°30' W 008°51'0 0.0
2018-Jul-17 19:30N 38°30' W 008°51'1 1.3
2018-Jul-17 19:00N 38°31' W 008°52'5 9.5
2018-Jul-17 18:31N 38°28' W 008°57'510.1
2018-Jul-17 18:00N 38°24' W 009°01'3 5.3
2018-Jul-17 17:30N 38°23' W 009°04'1 1.6
2018-Jul-17 17:00N 38°22' W 009°04'2 3.6
2018-Jul-17 16:30N 38°22' W 009°01'2 3.9
2018-Jul-17 16:00N 38°22' W 008°59'1 2.1
2018-Jul-17 15:30N 38°22' W 008°57'3 5.3
2018-Jul-17 15:00N 38°21' W 009°01'3 5.4
2018-Jul-17 14:30N 38°21' W 009°04'3 5.5
2018-Jul-17 14:00N 38°21' W 009°08'3 5.5
2018-Jul-17 13:31N 38°21' W 009°11'4 7.7
2018-Jul-17 13:00N 38°21' W 009°16'4 8.4
2018-Jul-17 12:30N 38°23' W 009°21'4 8.0
2018-Jul-17 12:00N 38°24' W 009°26'4 8.1
2018-Jul-17 11:30N 38°25' W 009°31'4 8.7
2018-Jul-17 11:00N 38°26' W 009°36'4 8.5
2018-Jul-17 10:30N 38°27' W 009°42'4 8.5
2018-Jul-17 10:00N 38°29' W 009°47'5 9.0
2018-Jul-17 09:30N 38°30' W 009°52'4 7.4
2018-Jul-17 09:00N 38°31' W 009°57'4 7.2
2018-Jul-17 08:30N 38°33' W 010°01'4 7.3
2018-Jul-17 08:01N 38°36' W 010°03'4 7.9
2018-Jul-17 07:30N 38°39' W 010°05'4 8.1
2018-Jul-17 07:00N 38°43' W 010°05'4 7.8
2018-Jul-17 06:30N 38°47' W 010°05'4 7.2
2018-Jul-17 06:00N 38°51' W 010°05'4 7.1
2018-Jul-17 05:30N 38°55' W 010°05'4 7.3
2018-Jul-17 05:00N 38°58' W 010°05'3 6.7
2018-Jul-17 04:30N 39°02' W 010°05'3 6.4
2018-Jul-17 04:01N 39°05' W 010°05'3 6.6
2018-Jul-17 03:31N 39°08' W 010°06'3 6.7
2018-Jul-17 03:00N 39°11' W 010°05'3 7.1
2018-Jul-17 02:31N 39°15' W 010°05'4 7.2
2018-Jul-17 01:59N 39°19' W 010°05'3 7.1
2018-Jul-17 01:30N 39°22' W 010°05'5 7.2
2018-Jul-17 00:48N 39°27' W 010°05'343 6.8
2018-Jul-14 22:39N 44°24' W 006°14'1 8.2
2018-Jul-14 22:31N 44°25' W 006°13'4 8.4
2018-Jul-14 22:00N 44°26' W 006°07'4 8.2
2018-Jul-14 21:30N 44°27' W 006°02'4 8.2
2018-Jul-14 21:00N 44°29' W 005°56'5 8.4
2018-Jul-14 20:26N 44°30' W 005°50'6 8.3
2018-Jul-14 19:44N 44°32' W 005°42'3 8.2
2018-Jul-14 19:21N 44°33' W 005°38'3 8.1
2018-Jul-14 18:58N 44°34' W 005°34'13 8.5
2018-Jul-14 17:28N 44°38' W 005°17'4 8.4
2018-Jul-14 17:01N 44°39' W 005°12'6 8.4
2018-Jul-14 16:21N 44°42' W 005°05'3 8.3
2018-Jul-14 16:00N 44°43' W 005°01'5 8.3
2018-Jul-14 15:24N 44°44' W 004°54'3 8.4
2018-Jul-14 15:00N 44°45' W 004°50'7 8.7
2018-Jul-14 14:12N 44°48' W 004°41'6 8.8
2018-Jul-14 13:30N 44°50' W 004°32'4 8.9
2018-Jul-14 13:00N 44°51' W 004°27'5 8.9
2018-Jul-14 12:29N 44°53' W 004°20'4 9.0
2018-Jul-14 12:01N 44°54' W 004°15'4 8.8
2018-Jul-14 11:30N 44°55' W 004°09'5 9.0
2018-Jul-14 11:00N 44°57' W 004°03'5 9.1
2018-Jul-14 10:30N 44°59' W 003°57'5 9.3
2018-Jul-14 10:00N 45°00' W 003°51'5 9.6
2018-Jul-14 09:30N 45°02' W 003°44'5 9.7
2018-Jul-14 09:01N 45°03' W 003°38'5 9.2
2018-Jul-14 08:28N 45°05' W 003°31'5 9.0
2018-Jul-14 07:56N 45°06' W 003°25'4 9.2
2018-Jul-14 07:30N 45°07' W 003°19'5 9.2
2018-Jul-14 07:01N 45°09' W 003°13'5 9.1
2018-Jul-14 06:30N 45°11' W 003°07'5 9.4
2018-Jul-14 06:00N 45°12' W 003°01'510.3
2018-Jul-14 05:30N 45°14' W 002°54'610.7
2018-Jul-14 04:58N 45°16' W 002°46'510.5
2018-Jul-14 04:31N 45°17' W 002°40'510.2
2018-Jul-14 04:01N 45°19' W 002°33'510.0
2018-Jul-14 03:31N 45°21' W 002°26'5 9.8
2018-Jul-14 03:01N 45°22' W 002°20'510.0
2018-Jul-14 02:31N 45°24' W 002°13'5 9.9
2018-Jul-14 02:00N 45°26' W 002°06'5 9.9
2018-Jul-14 01:31N 45°27' W 001°60'5 9.7
2018-Jul-14 01:01N 45°29' W 001°53'5 9.8
2018-Jul-14 00:31N 45°31' W 001°46'510.4
2018-Jul-14 00:00N 45°32' W 001°39'510.7
2018-Jul-13 23:30N 45°34' W 001°32'510.7
2018-Jul-13 23:00N 45°36' W 001°25'611.7
2018-Jul-13 22:30N 45°38' W 001°17'612.9
2018-Jul-13 22:00N 45°39' W 001°08'713.3
2018-Jul-13 21:30N 45°34' W 001°02'714.7
2018-Jul-13 21:00N 45°28' W 000°55'714.5
2018-Jul-13 20:30N 45°22' W 000°49'  
2018-Jul-10 23:14N 44°54' W 000°32'0 0.0
2018-Jul-10 22:44N 44°54' W 000°32'14 0.7
2018-Jul-10 02:12N 45°06' W 000°41'212.0
2018-Jul-10 02:00N 45°08' W 000°42'611.6
2018-Jul-10 01:30N 45°14' W 000°44'612.0
2018-Jul-10 01:00N 45°19' W 000°47'611.8
2018-Jul-10 00:30N 45°24' W 000°51'612.3
2018-Jul-10 00:00N 45°29' W 000°57'612.2
2018-Jul-09 23:30N 45°34' W 001°02'611.2
2018-Jul-09 23:00N 45°38' W 001°07'610.8
2018-Jul-09 22:28N 45°39' W 001°16'8 6.2
2018-Jul-09 21:10N 45°36' W 001°27'1 4.9
2018-Jul-09 20:58N 45°37' W 001°27'2 5.1
2018-Jul-09 20:30N 45°39' W 001°30'17 4.5
2018-Jul-09 16:38N 45°51' W 001°47'1 4.7
2018-Jul-09 16:26N 45°52' W 001°48'2 4.5
2018-Jul-09 16:00N 45°53' W 001°49'3 4.6
2018-Jul-09 15:25N 45°55' W 001°52'26 9.6
2018-Jul-09 12:40N 46°15' W 002°17'2 9.9
2018-Jul-09 12:26N 46°16' W 002°20'39 9.4
2018-Jul-09 08:14N 46°43' W 003°02'2 9.5
2018-Jul-09 07:59N 46°44' W 003°05'10 9.5
2018-Jul-09 06:56N 46°51' W 003°15'4 9.8
2018-Jul-09 06:30N 46°54' W 003°20'510.0
2018-Jul-09 05:58N 46°58' W 003°26'610.0
2018-Jul-09 05:24N 47°02' W 003°32'4 9.8
2018-Jul-09 05:00N 47°04' W 003°36'5 9.8
2018-Jul-09 04:30N 47°08' W 003°41'5 9.8
2018-Jul-09 04:00N 47°11' W 003°46'5 9.8
2018-Jul-09 03:30N 47°14' W 003°52'5 9.9
2018-Jul-09 03:00N 47°18' W 003°57'510.0
2018-Jul-09 02:29N 47°21' W 004°03'510.3
2018-Jul-09 01:58N 47°25' W 004°09'510.1
2018-Jul-09 01:30N 47°28' W 004°14'510.1
2018-Jul-09 01:00N 47°31' W 004°19'510.1
2018-Jul-09 00:30N 47°35' W 004°25'510.2
2018-Jul-09 00:00N 47°38' W 004°30'510.3
2018-Jul-08 23:30N 47°42' W 004°36'510.4
2018-Jul-08 23:00N 47°45' W 004°42'510.2
2018-Jul-08 22:30N 47°49' W 004°47'510.0
2018-Jul-08 22:00N 47°52' W 004°53'  

Dump ship's entire track history